createdAt,value
2023-04-25T00:00:25.345Z,1009.89
2023-04-25T00:00:55.774Z,1009.89
2023-04-25T00:01:26.385Z,1010.19
2023-04-25T00:01:57.731Z,1010.19
2023-04-25T00:02:28.799Z,1010.09
2023-04-25T00:02:59.830Z,1010.09
2023-04-25T00:03:30.874Z,1009.99
2023-04-25T00:04:01.624Z,1009.99
2023-04-25T00:04:32.875Z,1010.09
2023-04-25T00:05:04.268Z,1010.09
2023-04-25T00:05:34.604Z,1010.09
2023-04-25T00:06:05.587Z,1010.09
2023-04-25T00:06:36.721Z,1009.99
2023-04-25T00:07:09.117Z,1009.99
2023-04-25T00:07:38.667Z,1009.99
2023-04-25T00:08:11.277Z,1009.99
2023-04-25T00:08:40.837Z,1009.89
2023-04-25T00:09:12.075Z,1009.89
2023-04-25T00:09:42.829Z,1010.19
2023-04-25T00:10:14.085Z,1010.19
2023-04-25T00:10:44.529Z,1010.09
2023-04-25T00:11:15.611Z,1010.09
2023-04-25T00:11:46.720Z,1009.99
2023-04-25T00:12:17.418Z,1009.99
2023-04-25T00:12:48.540Z,1009.89
2023-04-25T00:13:19.633Z,1009.89
2023-04-25T00:13:50.850Z,1009.89
2023-04-25T00:14:21.591Z,1009.99
2023-04-25T00:14:52.788Z,1009.99
2023-04-25T00:15:24.315Z,1010.29
2023-04-25T00:15:54.474Z,1010.29
2023-04-25T00:16:25.393Z,1009.99
2023-04-25T00:16:56.606Z,1009.99
2023-04-25T00:17:27.437Z,1009.99
2023-04-25T00:17:58.532Z,1009.99
2023-04-25T00:18:29.501Z,1009.99
2023-04-25T00:19:00.851Z,1009.99
2023-04-25T00:19:31.457Z,1009.99
2023-04-25T00:20:03.370Z,1009.99
2023-04-25T00:20:33.418Z,1010.19
2023-04-25T00:21:04.626Z,1010.19
2023-04-25T00:21:35.418Z,1009.99
2023-04-25T00:22:06.445Z,1009.99
2023-04-25T00:22:37.467Z,1009.79
2023-04-25T00:23:08.452Z,1009.79
2023-04-25T00:23:39.447Z,1009.89
2023-04-25T00:24:10.441Z,1009.89
2023-04-25T00:24:41.650Z,1009.79
2023-04-25T00:25:13.467Z,1009.79
2023-04-25T00:25:43.439Z,1009.89
2023-04-25T00:26:14.427Z,1009.89
2023-04-25T00:26:45.457Z,1009.79
2023-04-25T00:27:16.416Z,1009.79
2023-04-25T00:27:47.717Z,1009.79
2023-04-25T00:28:18.588Z,1009.79
2023-04-25T00:28:49.467Z,1009.89
2023-04-25T00:29:20.569Z,1009.89
2023-04-25T00:29:51.581Z,1009.89
2023-04-25T00:30:23.445Z,1009.89
2023-04-25T00:30:53.503Z,1009.89
2023-04-25T00:31:24.725Z,1009.89
2023-04-25T00:31:55.864Z,1009.89
2023-04-25T00:32:26.549Z,1009.68
2023-04-25T00:32:57.494Z,1009.68
2023-04-25T00:33:28.448Z,1009.79
2023-04-25T00:33:59.400Z,1009.79
2023-04-25T00:34:30.771Z,1009.89
2023-04-25T00:35:01.880Z,1009.89
2023-04-25T00:35:32.572Z,1009.79
2023-04-25T00:36:03.544Z,1009.79
2023-04-25T00:36:35.414Z,1009.68
2023-04-25T00:37:05.671Z,1009.68
2023-04-25T00:37:36.536Z,1009.79
2023-04-25T00:38:07.800Z,1009.79
2023-04-25T00:38:40.060Z,1009.79
2023-04-25T00:39:09.933Z,1009.79
2023-04-25T00:39:41.448Z,1009.68
2023-04-25T00:40:11.841Z,1009.68
2023-04-25T00:40:42.750Z,1009.68
2023-04-25T00:41:13.486Z,1009.68
2023-04-25T00:41:44.552Z,1009.58
2023-04-25T00:42:15.775Z,1009.58
2023-04-25T00:42:46.758Z,1009.41
2023-04-25T00:43:17.735Z,1009.41
2023-04-25T00:43:49.107Z,1009.58
2023-04-25T00:44:19.509Z,1009.58
2023-04-25T00:44:50.806Z,1009.79
2023-04-25T00:45:22.396Z,1009.89
2023-04-25T00:45:52.801Z,1009.89
2023-04-25T00:46:23.542Z,1009.68
2023-04-25T00:46:54.548Z,1009.68
2023-04-25T00:47:25.945Z,1009.99
2023-04-25T00:47:57.074Z,1009.99
2023-04-25T00:48:27.783Z,1009.68
2023-04-25T00:48:58.561Z,1009.68
2023-04-25T00:49:29.565Z,1009.79
2023-04-25T00:50:00.731Z,1009.79
2023-04-25T00:50:31.463Z,1009.99
2023-04-25T00:51:02.750Z,1009.99
2023-04-25T00:51:33.535Z,1009.89
2023-04-25T00:52:05.018Z,1009.89
2023-04-25T00:52:35.559Z,1009.68
2023-04-25T00:53:06.659Z,1009.68
2023-04-25T00:53:37.751Z,1009.89
2023-04-25T00:54:08.542Z,1009.89
2023-04-25T00:54:39.962Z,1009.58
2023-04-25T00:55:11.008Z,1009.58
2023-04-25T00:55:41.770Z,1009.68
2023-04-25T00:56:12.557Z,1009.68
2023-04-25T00:56:43.587Z,1009.89
2023-04-25T00:57:14.588Z,1009.89
2023-04-25T00:57:46.034Z,1009.79
2023-04-25T00:58:16.948Z,1009.79
2023-04-25T00:58:47.784Z,1009.68
2023-04-25T00:59:18.752Z,1009.68
2023-04-25T00:59:49.997Z,1009.51
2023-04-25T01:00:21.396Z,1009.51
2023-04-25T01:00:51.678Z,1009.79
2023-04-25T01:01:22.683Z,1009.79
2023-04-25T01:01:53.616Z,1009.79
2023-04-25T01:02:24.948Z,1009.68
2023-04-25T01:02:56.007Z,1009.68
2023-04-25T01:03:26.836Z,1009.41
2023-04-25T01:03:58.464Z,1009.41
2023-04-25T01:04:28.732Z,1009.51
2023-04-25T01:05:00.224Z,1009.51
2023-04-25T01:05:30.848Z,1009.58
2023-04-25T01:06:01.593Z,1009.58
2023-04-25T01:06:32.575Z,1009.68
2023-04-25T01:07:03.715Z,1009.68
2023-04-25T01:07:35.009Z,1009.58
2023-04-25T01:08:05.585Z,1009.58
2023-04-25T01:08:36.870Z,1009.51
2023-04-25T01:09:07.911Z,1009.51
2023-04-25T01:09:38.893Z,1009.51
2023-04-25T01:10:11.812Z,1009.51
2023-04-25T01:10:40.643Z,1009.58
2023-04-25T01:11:12.751Z,1009.58
2023-04-25T01:11:42.842Z,1009.58
2023-04-25T01:12:14.043Z,1009.58
2023-04-25T01:12:44.568Z,1009.58
2023-04-25T01:13:16.230Z,1009.58
2023-04-25T01:13:46.972Z,1009.51
2023-04-25T01:14:17.734Z,1009.51
2023-04-25T01:14:48.654Z,1009.68
2023-04-25T01:15:20.362Z,1009.68
2023-04-25T01:15:50.713Z,1009.58
2023-04-25T01:16:21.713Z,1009.79
2023-04-25T01:16:52.687Z,1009.79
2023-04-25T01:17:23.857Z,1009.58
2023-04-25T01:17:54.684Z,1009.58
2023-04-25T01:18:25.930Z,1009.51
2023-04-25T01:18:56.949Z,1009.51
2023-04-25T01:19:27.621Z,1009.79
2023-04-25T01:19:58.664Z,1009.79
2023-04-25T01:20:30.133Z,1009.79
2023-04-25T01:21:01.042Z,1009.79
2023-04-25T01:21:32.072Z,1009.58
2023-04-25T01:22:02.597Z,1009.58
2023-04-25T01:22:33.671Z,1009.68
2023-04-25T01:23:04.631Z,1009.68
2023-04-25T01:23:35.870Z,1009.51
2023-04-25T01:24:06.795Z,1009.51
2023-04-25T01:24:37.883Z,1009.41
2023-04-25T01:25:08.863Z,1009.41
2023-04-25T01:25:39.668Z,1009.58
2023-04-25T01:26:10.711Z,1009.58
2023-04-25T01:26:41.851Z,1009.41
2023-04-25T01:27:13.030Z,1009.41
2023-04-25T01:27:43.869Z,1009.58
2023-04-25T01:28:14.985Z,1009.58
2023-04-25T01:28:45.868Z,1009.58
2023-04-25T01:29:16.906Z,1009.58
2023-04-25T01:29:47.695Z,1009.68
2023-04-25T01:30:20.065Z,1009.68
2023-04-25T01:30:49.663Z,1009.68
2023-04-25T01:31:21.100Z,1009.68
2023-04-25T01:31:51.744Z,1009.68
2023-04-25T01:32:22.739Z,1009.58
2023-04-25T01:32:53.782Z,1009.58
2023-04-25T01:33:25.047Z,1009.79
2023-04-25T01:33:55.692Z,1009.79
2023-04-25T01:34:26.890Z,1009.58
2023-04-25T01:34:57.715Z,1009.58
2023-04-25T01:35:28.980Z,1009.51
2023-04-25T01:35:59.719Z,1009.51
2023-04-25T01:36:30.724Z,1009.68
2023-04-25T01:37:01.710Z,1009.68
2023-04-25T01:37:33.037Z,1009.68
2023-04-25T01:38:03.728Z,1009.68
2023-04-25T01:38:35.056Z,1009.58
2023-04-25T01:39:05.825Z,1009.58
2023-04-25T01:39:36.716Z,1009.51
2023-04-25T01:40:08.783Z,1009.51
2023-04-25T01:40:39.081Z,1009.58
2023-04-25T01:41:09.775Z,1009.58
2023-04-25T01:41:42.012Z,1009.58
2023-04-25T01:42:11.679Z,1009.58
2023-04-25T01:42:43.391Z,1009.51
2023-04-25T01:43:13.896Z,1009.51
2023-04-25T01:43:45.296Z,1009.51
2023-04-25T01:44:15.994Z,1009.51
2023-04-25T01:44:47.032Z,1009.51
2023-04-25T01:45:18.785Z,1009.51
2023-04-25T01:45:49.112Z,1009.58
2023-04-25T01:46:20.023Z,1009.58
2023-04-25T01:46:50.735Z,1009.58
2023-04-25T01:47:21.834Z,1009.79
2023-04-25T01:47:52.801Z,1009.79
2023-04-25T01:48:23.639Z,1009.31
2023-04-25T01:48:54.999Z,1009.31
2023-04-25T01:49:25.757Z,1009.58
2023-04-25T01:49:56.690Z,1009.58
2023-04-25T01:50:28.356Z,1009.41
2023-04-25T01:50:58.759Z,1009.41
2023-04-25T01:51:29.893Z,1009.51
2023-04-25T01:52:01.047Z,1009.51
2023-04-25T01:52:31.913Z,1009.68
2023-04-25T01:53:02.677Z,1009.68
2023-04-25T01:53:33.771Z,1009.68
2023-04-25T01:54:05.134Z,1009.68
2023-04-25T01:54:35.759Z,1009.79
2023-04-25T01:55:07.168Z,1009.79
2023-04-25T01:55:38.189Z,1009.51
2023-04-25T01:56:08.765Z,1009.51
2023-04-25T01:56:39.746Z,1009.41
2023-04-25T01:57:10.747Z,1009.41
2023-04-25T01:57:41.793Z,1009.41
2023-04-25T01:58:12.795Z,1009.41
2023-04-25T01:58:43.826Z,1009.58
2023-04-25T01:59:14.762Z,1009.58
2023-04-25T01:59:46.566Z,1009.79
2023-04-25T02:00:17.953Z,1009.79
2023-04-25T02:00:48.005Z,1009.51
2023-04-25T02:01:19.066Z,1009.51
2023-04-25T02:01:50.159Z,1009.58
2023-04-25T02:02:20.868Z,1009.58
2023-04-25T02:02:52.421Z,1009.51
2023-04-25T02:03:23.538Z,1009.41
2023-04-25T02:03:54.401Z,1009.41
2023-04-25T02:04:25.304Z,1009.31
2023-04-25T02:04:56.578Z,1009.31
2023-04-25T02:05:27.165Z,1009.51
2023-04-25T02:05:58.718Z,1009.51
2023-04-25T02:06:28.969Z,1009.51
2023-04-25T02:06:59.879Z,1009.51
2023-04-25T02:07:30.795Z,1009.51
2023-04-25T02:08:01.794Z,1009.51
2023-04-25T02:08:32.794Z,1009.51
2023-04-25T02:09:04.029Z,1009.51
2023-04-25T02:09:35.414Z,1009.58
2023-04-25T02:10:06.173Z,1009.58
2023-04-25T02:10:37.158Z,1009.68
2023-04-25T02:11:07.821Z,1009.68
2023-04-25T02:11:38.855Z,1009.41
2023-04-25T02:12:10.245Z,1009.41
2023-04-25T02:12:40.739Z,1009.11
2023-04-25T02:13:13.452Z,1009.11
2023-04-25T02:13:42.785Z,1009.31
2023-04-25T02:14:14.966Z,1009.31
2023-04-25T02:14:44.820Z,1009.31
2023-04-25T02:15:17.321Z,1009.31
2023-04-25T02:15:46.976Z,1009.31
2023-04-25T02:16:17.982Z,1009.31
2023-04-25T02:16:48.909Z,1009.21
2023-04-25T02:17:19.868Z,1009.21
2023-04-25T02:17:51.198Z,1009.58
2023-04-25T02:18:22.241Z,1009.41
2023-04-25T02:18:53.161Z,1009.41
2023-04-25T02:19:24.079Z,1009.58
2023-04-25T02:19:55.141Z,1009.58
2023-04-25T02:20:26.299Z,1009.31
2023-04-25T02:20:56.882Z,1009.31
2023-04-25T02:21:27.871Z,1009.51
2023-04-25T02:21:59.211Z,1009.51
2023-04-25T02:22:30.157Z,1009.31
2023-04-25T02:23:01.129Z,1009.31
2023-04-25T02:23:32.069Z,1009.41
2023-04-25T02:24:02.912Z,1009.41
2023-04-25T02:24:33.997Z,1009.21
2023-04-25T02:25:05.287Z,1009.21
2023-04-25T02:25:35.879Z,1009.11
2023-04-25T02:26:06.903Z,1009.11
2023-04-25T02:26:38.098Z,1009.21
2023-04-25T02:27:09.148Z,1009.21
2023-04-25T02:27:40.172Z,1008.91
2023-04-25T02:28:10.903Z,1008.91
2023-04-25T02:28:42.137Z,1009.21
2023-04-25T02:29:13.141Z,1009.21
2023-04-25T02:29:44.056Z,1009.11
2023-04-25T02:30:15.692Z,1009.11
2023-04-25T02:30:45.882Z,1009.21
2023-04-25T02:31:16.884Z,1009.21
2023-04-25T02:31:48.255Z,1009.11
2023-04-25T02:32:18.863Z,1009.11
2023-04-25T02:32:50.330Z,1009.11
2023-04-25T02:33:21.092Z,1009.11
2023-04-25T02:33:52.533Z,1009.01
2023-04-25T02:34:22.900Z,1009.68
2023-04-25T02:34:54.149Z,1009.68
2023-04-25T02:35:25.303Z,1009.41
2023-04-25T02:35:56.319Z,1009.41
2023-04-25T02:36:26.852Z,1009.21
2023-04-25T02:36:57.886Z,1009.21
2023-04-25T02:37:29.334Z,1009.31
2023-04-25T02:37:59.926Z,1009.31
2023-04-25T02:38:31.262Z,1009.31
2023-04-25T02:39:02.150Z,1009.31
2023-04-25T02:39:33.098Z,1009.41
2023-04-25T02:40:04.651Z,1009.41
2023-04-25T02:40:35.764Z,1009.41
2023-04-25T02:41:05.939Z,1009.41
2023-04-25T02:41:37.054Z,1009.51
2023-04-25T02:42:08.086Z,1009.51
2023-04-25T02:42:38.853Z,1009.51
2023-04-25T02:43:10.244Z,1009.51
2023-04-25T02:43:40.859Z,1009.31
2023-04-25T02:44:12.185Z,1009.31
2023-04-25T02:44:44.758Z,1009.21
2023-04-25T02:45:14.507Z,1009.21
2023-04-25T02:45:45.533Z,1009.41
2023-04-25T02:46:19.103Z,1009.41
2023-04-25T02:46:47.519Z,1009.51
2023-04-25T02:47:18.263Z,1009.51
2023-04-25T02:47:48.936Z,1009.31
2023-04-25T02:48:20.132Z,1009.31
2023-04-25T02:48:51.278Z,1009.51
2023-04-25T02:49:22.034Z,1009.58
2023-04-25T02:49:53.289Z,1009.58
2023-04-25T02:50:24.674Z,1009.51
2023-04-25T02:50:55.158Z,1009.51
2023-04-25T02:51:26.219Z,1009.41
2023-04-25T02:51:57.289Z,1009.41
2023-04-25T02:52:28.280Z,1009.41
2023-04-25T02:52:58.921Z,1009.41
2023-04-25T02:53:29.942Z,1009.58
2023-04-25T02:54:00.863Z,1009.58
2023-04-25T02:54:31.937Z,1009.51
2023-04-25T02:55:03.118Z,1009.51
2023-04-25T02:55:33.889Z,1009.51
2023-04-25T02:56:05.215Z,1009.51
2023-04-25T02:56:36.222Z,1009.58
2023-04-25T02:57:07.313Z,1009.58
2023-04-25T02:57:38.350Z,1009.51
2023-04-25T02:58:09.355Z,1009.51
2023-04-25T02:58:40.185Z,1009.51
2023-04-25T02:59:11.336Z,1009.51
2023-04-25T02:59:42.342Z,1009.41
2023-04-25T03:00:14.050Z,1009.41
2023-04-25T03:00:44.019Z,1009.21
2023-04-25T03:01:15.145Z,1009.21
2023-04-25T03:01:46.331Z,1009.31
2023-04-25T03:02:17.524Z,1009.31
2023-04-25T03:02:48.342Z,1009.41
2023-04-25T03:03:19.331Z,1009.41
2023-04-25T03:03:50.302Z,1009.31
2023-04-25T03:04:21.700Z,1009.31
2023-04-25T03:04:52.971Z,1009.31
2023-04-25T03:05:23.687Z,1009.51
2023-04-25T03:05:53.960Z,1009.51
2023-04-25T03:06:25.567Z,1009.51
2023-04-25T03:06:55.971Z,1009.51
2023-04-25T03:07:26.964Z,1009.51
2023-04-25T03:07:58.466Z,1009.51
2023-04-25T03:08:29.340Z,1009.51
2023-04-25T03:09:00.008Z,1009.51
2023-04-25T03:09:30.951Z,1009.31
2023-04-25T03:10:02.351Z,1009.31
2023-04-25T03:10:33.303Z,1009.51
2023-04-25T03:11:04.320Z,1009.51
2023-04-25T03:11:36.180Z,1009.31
2023-04-25T03:12:05.997Z,1009.31
2023-04-25T03:12:37.015Z,1009.21
2023-04-25T03:13:08.078Z,1009.21
2023-04-25T03:13:39.041Z,1009.31
2023-04-25T03:14:10.025Z,1009.31
2023-04-25T03:14:41.104Z,1009.41
2023-04-25T03:15:12.804Z,1009.41
2023-04-25T03:15:43.087Z,1009.58
2023-04-25T03:16:15.084Z,1009.58
2023-04-25T03:16:45.569Z,1009.21
2023-04-25T03:17:17.288Z,1009.21
2023-04-25T03:17:47.153Z,1009.31
2023-04-25T03:18:18.754Z,1009.31
2023-04-25T03:18:49.240Z,1009.51
2023-04-25T03:19:19.970Z,1009.51
2023-04-25T03:19:51.015Z,1009.31
2023-04-25T03:20:22.805Z,1009.31
2023-04-25T03:20:53.521Z,1009.31
2023-04-25T03:21:24.077Z,1009.41
2023-04-25T03:21:55.281Z,1009.41
2023-04-25T03:22:26.414Z,1009.41
2023-04-25T03:22:56.962Z,1009.41
2023-04-25T03:23:28.158Z,1009.41
2023-04-25T03:23:59.057Z,1009.41
2023-04-25T03:24:30.057Z,1009.31
2023-04-25T03:25:01.279Z,1009.31
2023-04-25T03:25:32.098Z,1009.11
2023-04-25T03:26:03.532Z,1009.11
2023-04-25T03:26:34.927Z,1009.31
2023-04-25T03:27:05.305Z,1009.31
2023-04-25T03:27:36.089Z,1009.31
2023-04-25T03:28:07.167Z,1009.31
2023-04-25T03:28:38.298Z,1009.31
2023-04-25T03:29:09.072Z,1009.31
2023-04-25T03:29:40.344Z,1009.31
2023-04-25T03:30:12.155Z,1009.31
2023-04-25T03:30:42.111Z,1009.31
2023-04-25T03:31:12.993Z,1009.31
2023-04-25T03:31:43.993Z,1009.21
2023-04-25T03:32:15.144Z,1009.21
2023-04-25T03:32:46.401Z,1009.58
2023-04-25T03:33:17.336Z,1009.58
2023-04-25T03:33:48.390Z,1009.31
2023-04-25T03:34:19.186Z,1009.31
2023-04-25T03:34:50.260Z,1009.41
2023-04-25T03:35:21.657Z,1009.41
2023-04-25T03:35:52.399Z,1009.51
2023-04-25T03:36:23.106Z,1009.21
2023-04-25T03:36:54.101Z,1009.21
2023-04-25T03:37:25.123Z,1009.41
2023-04-25T03:37:56.032Z,1009.41
2023-04-25T03:38:27.237Z,1009.41
2023-04-25T03:38:58.218Z,1009.41
2023-04-25T03:39:29.031Z,1009.31
2023-04-25T03:40:00.901Z,1009.31
2023-04-25T03:40:31.610Z,1009.31
2023-04-25T03:41:02.117Z,1009.31
2023-04-25T03:41:33.132Z,1009.51
2023-04-25T03:42:04.089Z,1009.51
2023-04-25T03:42:35.232Z,1009.51
2023-04-25T03:43:06.219Z,1009.51
2023-04-25T03:43:37.222Z,1009.41
2023-04-25T03:44:08.113Z,1009.41
2023-04-25T03:44:39.100Z,1009.21
2023-04-25T03:45:11.176Z,1009.21
2023-04-25T03:45:41.532Z,1009.21
2023-04-25T03:46:12.206Z,1009.21
2023-04-25T03:46:43.148Z,1009.58
2023-04-25T03:47:14.457Z,1009.58
2023-04-25T03:47:46.556Z,1009.21
2023-04-25T03:48:16.087Z,1009.21
2023-04-25T03:48:47.744Z,1009.21
2023-04-25T03:49:19.615Z,1009.21
2023-04-25T03:49:49.132Z,1009.31
2023-04-25T03:50:20.783Z,1009.31
2023-04-25T03:50:51.103Z,1009.41
2023-04-25T03:51:22.584Z,1009.31
2023-04-25T03:51:53.083Z,1009.31
2023-04-25T03:52:24.225Z,1009.31
2023-04-25T03:52:55.111Z,1009.31
2023-04-25T03:53:26.283Z,1009.31
2023-04-25T03:53:57.349Z,1009.31
2023-04-25T03:54:28.556Z,1009.11
2023-04-25T03:54:59.607Z,1009.11
2023-04-25T03:55:30.780Z,1009.11
2023-04-25T03:56:01.459Z,1009.11
2023-04-25T03:56:32.074Z,1009.21
2023-04-25T03:57:03.452Z,1009.21
2023-04-25T03:57:34.233Z,1009.41
2023-04-25T03:58:05.618Z,1009.41
2023-04-25T03:58:36.437Z,1009.31
2023-04-25T03:59:07.361Z,1009.31
2023-04-25T03:59:38.162Z,1009.31
2023-04-25T04:00:10.202Z,1009.31
2023-04-25T04:00:40.345Z,1009.11
2023-04-25T04:01:11.509Z,1009.11
2023-04-25T04:01:42.213Z,1009.41
2023-04-25T04:02:13.351Z,1009.41
2023-04-25T04:02:45.490Z,1009.31
2023-04-25T04:03:15.594Z,1009.31
2023-04-25T04:03:46.320Z,1009.01
2023-04-25T04:04:17.677Z,1009.01
2023-04-25T04:04:48.575Z,1009.31
2023-04-25T04:05:19.968Z,1009.31
2023-04-25T04:05:50.831Z,1009.01
2023-04-25T04:06:21.560Z,1009.01
2023-04-25T04:06:52.481Z,1009.01
2023-04-25T04:07:23.538Z,1009.11
2023-04-25T04:07:54.586Z,1009.11
2023-04-25T04:08:25.512Z,1009.21
2023-04-25T04:08:56.643Z,1009.21
2023-04-25T04:09:27.661Z,1009.11
2023-04-25T04:09:58.167Z,1009.11
2023-04-25T04:10:29.866Z,1009.11
2023-04-25T04:11:00.423Z,1009.11
2023-04-25T04:11:31.167Z,1009.31
2023-04-25T04:12:02.152Z,1009.31
2023-04-25T04:12:33.214Z,1009.41
2023-04-25T04:13:04.217Z,1009.41
2023-04-25T04:13:35.391Z,1009.41
2023-04-25T04:14:06.349Z,1009.41
2023-04-25T04:14:37.535Z,1009.21
2023-04-25T04:15:09.142Z,1009.21
2023-04-25T04:15:39.697Z,1009.21
2023-04-25T04:16:10.961Z,1009.21
2023-04-25T04:16:41.358Z,1009.68
2023-04-25T04:17:12.248Z,1009.68
2023-04-25T04:17:43.267Z,1009.41
2023-04-25T04:18:14.247Z,1009.41
2023-04-25T04:18:45.743Z,1009.41
2023-04-25T04:19:17.500Z,1009.41
2023-04-25T04:19:47.274Z,1009.41
2023-04-25T04:20:20.908Z,1009.41
2023-04-25T04:20:49.227Z,1009.21
2023-04-25T04:21:20.457Z,1009.21
2023-04-25T04:21:51.338Z,1009.21
2023-04-25T04:22:22.357Z,1009.31
2023-04-25T04:22:53.618Z,1009.31
2023-04-25T04:23:24.476Z,1009.41
2023-04-25T04:23:55.865Z,1009.41
2023-04-25T04:24:26.641Z,1009.51
2023-04-25T04:24:57.802Z,1009.51
2023-04-25T04:25:28.738Z,1009.21
2023-04-25T04:25:59.508Z,1009.21
2023-04-25T04:26:30.702Z,1009.31
2023-04-25T04:27:01.318Z,1009.31
2023-04-25T04:27:32.299Z,1009.58
2023-04-25T04:28:03.348Z,1009.58
2023-04-25T04:28:34.272Z,1009.41
2023-04-25T04:29:05.444Z,1009.41
2023-04-25T04:29:36.713Z,1009.31
2023-04-25T04:30:08.093Z,1009.31
2023-04-25T04:30:38.616Z,1009.41
2023-04-25T04:31:09.583Z,1009.41
2023-04-25T04:31:40.662Z,1009.31
2023-04-25T04:32:11.501Z,1009.31
2023-04-25T04:32:42.722Z,1009.31
2023-04-25T04:33:13.482Z,1009.31
2023-04-25T04:33:44.304Z,1009.41
2023-04-25T04:34:15.709Z,1009.41
2023-04-25T04:34:46.328Z,1009.58
2023-04-25T04:35:18.057Z,1009.58
2023-04-25T04:35:48.559Z,1009.41
2023-04-25T04:36:19.422Z,1009.41
2023-04-25T04:36:50.309Z,1009.11
2023-04-25T04:37:21.419Z,1009.11
2023-04-25T04:37:52.669Z,1009.51
2023-04-25T04:38:23.498Z,1009.51
2023-04-25T04:38:54.351Z,1009.51
2023-04-25T04:39:25.498Z,1009.31
2023-04-25T04:39:56.602Z,1009.31
2023-04-25T04:40:28.091Z,1009.41
2023-04-25T04:40:58.360Z,1009.41
2023-04-25T04:41:29.649Z,1009.31
2023-04-25T04:42:00.320Z,1009.31
2023-04-25T04:42:31.344Z,1009.51
2023-04-25T04:43:02.755Z,1009.51
2023-04-25T04:43:33.576Z,1009.31
2023-04-25T04:44:04.339Z,1009.31
2023-04-25T04:44:36.006Z,1009.41
2023-04-25T04:45:07.155Z,1009.41
2023-04-25T04:45:37.430Z,1009.21
2023-04-25T04:46:08.499Z,1009.21
2023-04-25T04:46:39.379Z,1009.31
2023-04-25T04:47:10.620Z,1009.31
2023-04-25T04:47:41.576Z,1009.51
2023-04-25T04:48:12.847Z,1009.51
2023-04-25T04:48:43.849Z,1009.51
2023-04-25T04:49:14.354Z,1009.51
2023-04-25T04:49:45.394Z,1009.58
2023-04-25T04:50:17.158Z,1009.58
2023-04-25T04:50:48.679Z,1009.41
2023-04-25T04:51:18.553Z,1009.41
2023-04-25T04:51:51.213Z,1009.58
2023-04-25T04:52:20.763Z,1009.58
2023-04-25T04:52:51.924Z,1009.41
2023-04-25T04:53:22.746Z,1009.58
2023-04-25T04:53:54.242Z,1009.58
2023-04-25T04:54:25.409Z,1009.41
2023-04-25T04:54:55.389Z,1009.41
2023-04-25T04:55:27.273Z,1009.51
2023-04-25T04:55:57.575Z,1009.51
2023-04-25T04:56:28.655Z,1009.51
2023-04-25T04:56:59.658Z,1009.51
2023-04-25T04:57:30.712Z,1009.51
2023-04-25T04:58:01.687Z,1009.51
2023-04-25T04:58:32.770Z,1009.51
2023-04-25T04:59:03.965Z,1009.51
2023-04-25T04:59:35.199Z,1009.41
2023-04-25T05:00:06.710Z,1009.41
2023-04-25T05:00:36.457Z,1009.31
2023-04-25T05:01:07.701Z,1009.31
2023-04-25T05:01:38.404Z,1009.58
2023-04-25T05:02:09.698Z,1009.58
2023-04-25T05:02:41.200Z,1009.51
2023-04-25T05:03:11.609Z,1009.51
2023-04-25T05:03:42.658Z,1009.79
2023-04-25T05:04:13.847Z,1009.79
2023-04-25T05:04:44.566Z,1009.58
2023-04-25T05:05:15.926Z,1009.58
2023-04-25T05:05:46.425Z,1009.51
2023-04-25T05:06:17.624Z,1009.51
2023-04-25T05:06:49.142Z,1009.58
2023-04-25T05:07:19.615Z,1009.58
2023-04-25T05:07:50.648Z,1009.68
2023-04-25T05:08:21.469Z,1009.68
2023-04-25T05:08:52.655Z,1009.51
2023-04-25T05:09:23.623Z,1009.41
2023-04-25T05:09:54.810Z,1009.41
2023-04-25T05:10:26.185Z,1009.51
2023-04-25T05:10:56.773Z,1009.51
2023-04-25T05:11:27.842Z,1009.68
2023-04-25T05:11:58.840Z,1009.68
2023-04-25T05:12:29.466Z,1009.58
2023-04-25T05:13:00.900Z,1009.58
2023-04-25T05:13:31.660Z,1009.58
2023-04-25T05:14:02.518Z,1009.58
2023-04-25T05:14:33.682Z,1009.58
2023-04-25T05:15:05.907Z,1009.58
2023-04-25T05:15:35.565Z,1009.51
2023-04-25T05:16:06.538Z,1009.51
2023-04-25T05:16:37.836Z,1009.68
2023-04-25T05:17:08.835Z,1009.68
2023-04-25T05:17:39.519Z,1009.41
2023-04-25T05:18:11.020Z,1009.41
2023-04-25T05:18:41.827Z,1009.58
2023-04-25T05:19:12.439Z,1009.58
2023-04-25T05:19:43.500Z,1009.31
2023-04-25T05:20:14.979Z,1009.31
2023-04-25T05:20:45.469Z,1009.68
2023-04-25T05:21:16.512Z,1009.68
2023-04-25T05:21:47.662Z,1009.58
2023-04-25T05:22:19.377Z,1009.58
2023-04-25T05:22:49.488Z,1009.41
2023-04-25T05:23:20.905Z,1009.41
2023-04-25T05:23:51.952Z,1009.58
2023-04-25T05:24:22.819Z,1009.58
2023-04-25T05:24:55.943Z,1009.58
2023-04-25T05:25:24.954Z,1009.68
2023-04-25T05:25:55.531Z,1009.68
2023-04-25T05:26:26.580Z,1009.58
2023-04-25T05:26:57.527Z,1009.58
2023-04-25T05:27:28.491Z,1009.51
2023-04-25T05:27:59.533Z,1009.51
2023-04-25T05:28:30.910Z,1009.68
2023-04-25T05:29:01.842Z,1009.68
2023-04-25T05:29:32.640Z,1009.58
2023-04-25T05:30:04.417Z,1009.58
2023-04-25T05:30:34.904Z,1009.31
2023-04-25T05:31:06.037Z,1009.31
2023-04-25T05:31:36.574Z,1009.58
2023-04-25T05:32:07.546Z,1009.58
2023-04-25T05:32:38.535Z,1009.51
2023-04-25T05:33:09.638Z,1009.51
2023-04-25T05:33:40.900Z,1009.31
2023-04-25T05:34:11.704Z,1009.31
2023-04-25T05:34:42.746Z,1009.68
2023-04-25T05:35:14.186Z,1009.68
2023-04-25T05:35:44.790Z,1009.51
2023-04-25T05:36:15.513Z,1009.51
2023-04-25T05:36:46.549Z,1009.51
2023-04-25T05:37:17.489Z,1009.51
2023-04-25T05:37:48.553Z,1009.79
2023-04-25T05:38:19.678Z,1009.79
2023-04-25T05:38:50.618Z,1009.68
2023-04-25T05:39:21.835Z,1009.68
2023-04-25T05:39:52.915Z,1009.68
2023-04-25T05:40:24.280Z,1009.51
2023-04-25T05:40:55.003Z,1009.51
2023-04-25T05:41:25.606Z,1009.41
2023-04-25T05:41:56.646Z,1009.41
2023-04-25T05:42:27.702Z,1009.58
2023-04-25T05:42:58.656Z,1009.58
2023-04-25T05:43:29.751Z,1009.58
2023-04-25T05:44:00.891Z,1009.58
2023-04-25T05:44:31.550Z,1009.51
2023-04-25T05:45:03.289Z,1009.51
2023-04-25T05:45:33.687Z,1009.68
2023-04-25T05:46:05.287Z,1009.68
2023-04-25T05:46:35.625Z,1009.51
2023-04-25T05:47:06.613Z,1009.51
2023-04-25T05:47:37.798Z,1009.58
2023-04-25T05:48:08.871Z,1009.58
2023-04-25T05:48:39.959Z,1009.68
2023-04-25T05:49:10.933Z,1009.68
2023-04-25T05:49:41.875Z,1009.58
2023-04-25T05:50:13.191Z,1009.58
2023-04-25T05:50:43.620Z,1009.31
2023-04-25T05:51:14.570Z,1009.31
2023-04-25T05:51:45.645Z,1009.51
2023-04-25T05:52:16.744Z,1009.51
2023-04-25T05:52:47.682Z,1009.51
2023-04-25T05:53:19.305Z,1009.51
2023-04-25T05:53:51.100Z,1009.51
2023-04-25T05:54:20.613Z,1009.51
2023-04-25T05:54:52.092Z,1009.51
2023-04-25T05:55:23.197Z,1009.58
2023-04-25T05:55:53.572Z,1009.58
2023-04-25T05:56:24.766Z,1009.58
2023-04-25T05:56:55.876Z,1009.58
2023-04-25T05:57:26.593Z,1009.51
2023-04-25T05:57:57.634Z,1009.51
2023-04-25T05:58:29.115Z,1009.89
2023-04-25T05:58:59.970Z,1009.89
2023-04-25T05:59:30.969Z,1009.79
2023-04-25T06:00:02.316Z,1009.79
2023-04-25T06:00:32.727Z,1009.68
2023-04-25T06:01:03.695Z,1009.68
2023-04-25T06:01:34.616Z,1009.58
2023-04-25T06:02:06.093Z,1009.58
2023-04-25T06:02:36.702Z,1009.68
2023-04-25T06:03:08.230Z,1009.68
2023-04-25T06:03:39.004Z,1009.79
2023-04-25T06:04:09.922Z,1009.79
2023-04-25T06:04:40.765Z,1009.79
2023-04-25T06:05:12.114Z,1009.79
2023-04-25T06:05:42.636Z,1009.89
2023-04-25T06:06:13.937Z,1009.89
2023-04-25T06:06:44.933Z,1009.58
2023-04-25T06:07:16.125Z,1009.58
2023-04-25T06:07:46.598Z,1009.79
2023-04-25T06:08:17.744Z,1009.79
2023-04-25T06:08:49.023Z,1009.68
2023-04-25T06:09:19.810Z,1009.68
2023-04-25T06:09:50.806Z,1009.79
2023-04-25T06:10:22.758Z,1009.79
2023-04-25T06:10:53.018Z,1009.58
2023-04-25T06:11:23.800Z,1009.51
2023-04-25T06:11:54.932Z,1009.51
2023-04-25T06:12:25.846Z,1009.58
2023-04-25T06:12:56.545Z,1009.58
2023-04-25T06:13:27.738Z,1009.51
2023-04-25T06:13:58.632Z,1009.51
2023-04-25T06:14:29.877Z,1009.68
2023-04-25T06:15:02.084Z,1009.68